Latest Weather Observations for Warra

IDT60801

Issued at 8:01 pm EST Sunday 26 June 2016 (issued every 30 minutes, with the page automatically refreshed every 10 minutes)

About weather observations | Map of weather stations | Latest weather observations for TAS | Other Formats
Station Details ID: 097024 Name: WARRA Lat: -43.06 Lon: 146.70 Height: 495.0 m
Data from the previous 72 hours. | See also: Recent months at Warra
Date/Time
EST
Temp
°C
App
Temp
°C
Dew
Point
Rel
Hum
%
Delta-T
°C
Wind Press
QNH
hPa
Press
MSL
hPa
Rain
since 9 am
mm
Dir
 
Spd
km/h
Gust
km/h
Spd
kts
Gust
kts
26/08:00pm 6.2 2.8 5.8 97 0.2 NW 13 19 7 10 - - 0.2
26/07:30pm 6.3 2.4 5.3 93 0.5 NW 15 28 8 15 - - 0.2
26/07:00pm 7.0 2.5 4.3 83 1.2 NW 17 33 9 18 - - 0.0
26/06:30pm 7.3 2.8 4.3 81 1.3 NNW 17 26 9 14 - - 0.0
26/06:00pm 7.2 2.3 4.2 81 1.3 NW 19 30 10 16 - - 0.0
26/05:30pm 7.2 2.7 4.2 81 1.3 NW 17 33 9 18 - - 0.0
26/05:00pm 7.4 2.6 4.5 82 1.3 NW 19 28 10 15 - - 0.0
26/04:30pm 7.4 2.6 4.5 82 1.3 NW 19 32 10 17 - - 0.0
26/04:00pm 7.5 2.7 4.6 82 1.3 NW 19 35 10 19 - - 0.0
26/03:30pm 7.9 5.2 5.7 86 1.0 NNW 9 17 5 9 - - 0.0
26/03:00pm 8.3 4.8 5.4 82 1.3 NNW 13 28 7 15 - - 0.0
26/02:30pm 8.1 5.8 5.7 85 1.1 N 7 20 4 11 - - 0.0
26/02:00pm 8.6 6.2 5.4 80 1.5 NNE 7 26 4 14 - - 0.0
26/01:30pm 8.9 4.6 5.3 78 1.7 NW 17 33 9 18 - - 0.0
26/01:00pm 8.4 3.7 5.3 81 1.4 NW 19 32 10 17 - - 0.0
26/12:30pm 8.8 5.3 5.5 80 1.5 NNW 13 24 7 13 - - 0.0
26/12:00pm 9.0 4.8 5.9 81 1.5 NNW 17 33 9 18 - - 0.0
26/11:30am 7.8 4.0 5.9 88 0.9 NW 15 32 8 17 - - 0.0
26/11:00am 6.9 3.9 5.8 93 0.5 NW 11 19 6 10 - - 0.0
26/10:30am 7.0 4.7 5.8 92 0.6 W 7 15 4 8 - - 0.0
26/10:00am 6.4 3.8 6.0 97 0.2 W 9 13 5 7 - - 0.0
26/09:30am 6.6 3.9 5.7 94 0.4 WNW 9 13 5 7 - - 0.0
26/09:00am 6.0 3.4 5.9 99 0.0 NW 9 15 5 8 - - 4.6
26/08:30am 5.8 2.4 5.7 99 0.0 NW 13 22 7 12 - - 4.6
26/08:00am 5.7 1.9 5.6 99 0.0 NW 15 22 8 12 - - 4.6
26/07:30am 5.4 2.2 5.0 97 0.2 NW 11 20 6 11 - - 4.6
26/07:00am 6.1 1.6 4.4 89 0.8 NW 17 28 9 15 - - 4.6
26/06:30am 6.2 2.1 4.5 89 0.8 WNW 15 33 8 18 - - 4.6
26/06:00am 6.1 3.9 5.4 95 0.3 WNW 6 13 3 7 - - 4.6
26/05:30am 6.3 3.1 5.1 92 0.5 WNW 11 20 6 11 - - 4.6
26/05:00am 6.1 3.8 5.7 97 0.2 WNW 7 15 4 8 - - 4.6
26/04:30am 5.4 4.0 5.4 100 0.0 NNE 2 7 1 4 - - 4.6
26/04:00am 5.7 3.4 5.7 100 0.0 NNW 7 19 4 10 - - 4.6
26/03:30am 6.1 4.4 6.1 100 0.0 E 4 9 2 5 - - 4.6
26/03:00am 5.8 3.5 5.8 100 0.0 N 7 13 4 7 - - 4.6
26/02:30am 6.0 3.4 6.0 100 0.0 N 9 24 5 13 - - 4.6
26/02:00am 5.7 2.3 5.7 100 0.0 NNW 13 22 7 12 - - 4.6
26/01:30am 5.7 2.3 5.7 100 0.0 NNW 13 22 7 12 - - 4.6
26/01:00am 5.4 3.0 5.4 100 0.0 NNW 7 13 4 7 - - 4.6
26/12:30am 5.3 3.1 5.2 99 0.0 NNW 6 9 3 5 - - 4.6
26/12:00am 5.6 3.2 5.2 97 0.2 NNW 7 15 4 8 - - 4.6
 
Date/Time
EST
Temp
°C
App
Temp
°C
Dew
Point
Rel
Hum
%
Delta-T
°C
Wind Press
QNH
hPa
Press
MSL
hPa
Rain
since 9 am
mm
Dir
 
Spd
km/h
Gust
km/h
Spd
kts
Gust
kts
25/11:30pm 6.6 2.3 5.4 92 0.5 W 17 32 9 17 - - 4.6
25/11:00pm 6.4 2.5 5.4 93 0.5 W 15 28 8 15 - - 4.6
25/10:30pm 6.0 2.5 5.4 96 0.3 W 13 26 7 14 - - 4.6
25/10:00pm 5.9 2.1 5.8 99 0.0 WNW 15 30 8 16 - - 4.6
25/09:30pm 6.0 3.0 6.0 100 0.0 WNW 11 22 6 12 - - 4.6
25/09:00pm 5.9 3.8 5.8 99 0.0 WNW 6 7 3 4 - - 4.4
25/08:30pm 6.2 2.8 6.1 99 0.0 WNW 13 28 7 15 - - 4.4
25/08:00pm 6.0 3.8 6.0 100 0.0 WNW 7 11 4 6 - - 4.4
25/07:30pm 5.8 3.1 5.8 100 0.0 W 9 19 5 10 - - 4.4
25/07:00pm 5.7 3.4 5.7 100 0.0 W 7 19 4 10 - - 4.4
25/06:30pm 4.9 2.6 4.9 100 0.0 SSW 6 17 3 9 - - 4.4
25/06:00pm 5.7 2.3 5.7 100 0.0 WSW 13 24 7 13 - - 4.4
25/05:30pm 5.9 3.3 5.9 100 0.0 W 9 20 5 11 - - 4.4
25/05:00pm 4.9 2.0 4.9 100 0.0 S 9 22 5 12 - - 4.4
25/04:30pm 4.6 2.3 4.6 100 0.0 SE 6 9 3 5 - - 4.4
25/04:00pm 4.8 2.3 4.8 100 0.0 SE 7 11 4 6 - - 4.4
25/03:30pm 5.3 3.5 5.2 99 0.0 E 4 9 2 5 - - 4.4
25/03:00pm 5.8 3.5 4.9 94 0.4 SW 6 19 3 10 - - 4.4
25/02:30pm 5.8 2.9 4.6 92 0.5 SW 9 19 5 10 - - 4.4
25/02:00pm 5.8 2.8 4.1 89 0.7 WSW 9 15 5 8 - - 4.4
25/01:30pm 5.7 3.1 4.0 89 0.7 WNW 7 13 4 7 - - 4.4
25/01:00pm 5.3 2.1 3.3 87 0.9 W 9 19 5 10 - - 4.4
25/12:30pm 5.4 1.5 3.6 88 0.8 W 13 24 7 13 - - 4.4
25/12:00pm 5.3 1.0 3.2 86 0.9 W 15 28 8 15 - - 4.4
25/11:30am 5.1 0.8 3.0 86 0.9 W 15 26 8 14 - - 4.4
25/11:00am 4.8 0.7 2.5 85 1.0 W 13 26 7 14 - - 4.4
25/10:30am 4.0 -0.5 1.9 86 0.9 W 15 24 8 13 - - 0.0
25/10:00am 3.4 -1.2 1.6 88 0.7 W 15 24 8 13 - - 0.0
25/09:30am 2.2 -2.0 1.6 96 0.2 WSW 13 20 7 11 - - 0.0
25/09:00am 2.0 -2.2 1.7 98 0.1 W 13 26 7 14 - - 7.2
25/08:30am 1.4 -2.9 1.3 99 0.0 W 13 26 7 14 - - 7.2
25/08:00am 1.3 -2.2 1.2 99 0.0 WSW 9 19 5 10 - - 7.2
25/07:30am 0.5 -3.5 0.5 100 0.0 WNW 11 17 6 9 - - 7.2
25/07:00am 0.1 -3.0 0.1 100 0.0 WNW 6 11 3 6 - - 7.2
25/06:30am 0.2 -3.1 0.1 99 0.0 W 7 15 4 8 - - 7.2
25/06:00am -0.1 -3.4 -0.1 100 0.0 WNW 7 13 4 7 - - 7.2
25/05:30am 0.4 -2.7 0.4 100 0.0 WSW 6 11 3 6 - - 7.2
25/05:00am 0.3 -2.8 0.2 99 0.0 N 6 11 3 6 - - 7.2
25/04:30am 0.8 -2.8 0.7 99 0.0 SW 9 17 5 9 - - 7.2
25/04:00am 0.8 -3.5 0.8 100 0.0 W 13 22 7 12 - - 7.2
25/03:30am 0.5 -2.7 0.5 100 0.0 SW 7 13 4 7 - - 7.2
25/03:00am 0.0 -3.1 -0.1 99 0.0 SW 6 9 3 5 - - 7.2
25/02:30am 0.3 -2.4 0.2 99 0.0 SW 4 11 2 6 - - 7.2
25/02:00am 0.5 -3.1 0.4 99 0.0 W 9 17 5 9 - - 7.2
25/01:30am 0.8 -3.2 0.7 99 0.0 WNW 11 24 6 13 - - 7.2
25/01:00am 0.7 -4.4 0.7 100 0.0 W 17 30 9 16 - - 7.2
25/12:30am 0.4 -3.6 0.3 99 0.0 WSW 11 19 6 10 - - 7.2
25/12:00am 0.2 -3.8 0.2 100 0.0 WNW 11 19 6 10 - - 7.2
 
Date/Time
EST
Temp
°C
App
Temp
°C
Dew
Point
Rel
Hum
%
Delta-T
°C
Wind Press
QNH
hPa
Press
MSL
hPa
Rain
since 9 am
mm
Dir
 
Spd
km/h
Gust
km/h
Spd
kts
Gust
kts
24/11:30pm 0.8 -4.3 0.7 99 0.0 W 17 30 9 16 - - 7.2
24/11:00pm 0.8 -4.3 0.7 99 0.0 W 17 28 9 15 - - 7.2
24/10:30pm 0.7 -3.7 0.6 99 0.0 W 13 30 7 16 - - 7.2
24/10:00pm 0.7 -3.3 0.6 99 0.0 W 11 19 6 10 - - 7.2
24/09:30pm 0.6 -4.1 0.6 100 0.0 W 15 24 8 13 - - 7.2
24/09:00pm 0.7 -3.3 0.7 100 0.0 WNW 11 19 6 10 - - 7.2
24/08:30pm 0.7 -3.3 0.7 100 0.0 WNW 11 17 6 9 - - 7.2
24/08:00pm 0.7 -2.5 0.7 100 0.0 WNW 7 13 4 7 - - 7.2
24/07:30pm 0.8 -2.4 0.8 100 0.0 WSW 7 15 4 8 - - 7.2
24/07:00pm 0.5 -3.9 0.5 100 0.0 W 13 20 7 11 - - 7.2
24/06:30pm 0.5 -3.1 0.5 100 0.0 W 9 19 5 10 - - 7.2
24/06:00pm 0.0 -3.1 0.0 100 0.0 WSW 6 13 3 7 - - 7.2
24/05:30pm 0.7 -2.9 0.6 99 0.0 W 9 15 5 8 - - 7.2
24/05:00pm 0.8 -2.8 0.8 100 0.0 W 9 15 5 8 - - 7.2
24/04:30pm 1.3 -2.6 1.3 100 0.0 W 11 20 6 11 - - 7.2
24/04:00pm 1.5 -2.0 1.4 99 0.0 W 9 15 5 8 - - 7.2
24/03:30pm 1.9 -1.9 1.8 99 0.0 W 11 19 6 10 - - 7.2
24/03:00pm 2.4 -0.6 1.8 96 0.2 WSW 7 13 4 7 - - 7.0
24/02:30pm 2.5 -0.5 1.9 96 0.2 W 7 13 4 7 - - 7.0
24/02:00pm 3.0 0.1 2.4 96 0.2 W 7 11 4 6 - - 7.0
24/01:30pm 2.9 0.1 1.9 93 0.4 S 6 11 3 6 - - 7.0
24/01:00pm 2.6 -0.4 1.9 95 0.3 W 7 20 4 11 - - 7.0
24/12:30pm 2.3 -1.1 1.9 97 0.2 NNW 9 15 5 8 - - 6.8
24/12:00pm 2.5 -0.5 1.8 95 0.3 W 7 13 4 7 - - 6.6
24/11:30am 2.8 -0.2 2.1 95 0.3 WSW 7 11 4 6 - - 6.0
24/11:00am 2.8 -0.5 2.7 99 0.0 W 9 15 5 8 - - 4.4
24/10:30am 1.9 -1.5 1.8 99 0.0 W 9 13 5 7 - - 0.2
24/10:00am 1.0 -2.9 1.0 100 0.0 W 11 17 6 9 - - 0.0
24/09:30am 0.8 -3.2 0.8 100 0.0 WNW 11 17 6 9 - - 0.0
24/09:00am 0.5 -2.7 0.5 100 0.0 WSW 7 11 4 6 - - 6.2
24/08:30am 0.3 -3.0 0.3 100 0.0 WSW 7 13 4 7 - - 6.2
24/08:00am 0.4 -3.2 0.4 100 0.0 WNW 9 17 5 9 - - 6.2
24/07:30am 0.5 -3.5 0.5 100 0.0 NNW 11 19 6 10 - - 6.2
24/07:00am 0.2 -2.5 0.2 100 0.0 W 4 7 2 4 - - 6.2
24/06:30am 0.4 -3.2 0.4 100 0.0 WNW 9 17 5 9 - - 6.2
24/06:00am 0.4 -3.6 0.4 100 0.0 NW 11 19 6 10 - - 6.2
24/05:30am 0.8 -2.8 0.8 100 0.0 WNW 9 20 5 11 - - 6.2
24/05:00am 0.7 -3.3 0.7 100 0.0 WNW 11 22 6 12 - - 6.2
24/04:30am 0.3 -3.7 0.3 100 0.0 NNW 11 17 6 9 - - 6.2
24/04:00am 0.3 -3.0 0.3 100 0.0 W 7 9 4 5 - - 6.2
24/03:30am 0.3 -3.3 0.3 100 0.0 W 9 17 5 9 - - 6.2
24/03:00am 0.3 -3.0 0.3 100 0.0 W 7 11 4 6 - - 6.2
24/02:30am 0.3 -2.4 0.3 100 0.0 SSW 4 9 2 5 - - 6.2
24/02:00am 0.2 -2.9 0.1 99 0.0 SSE 6 9 3 5 - - 6.2
24/01:30am 1.4 -2.2 0.8 96 0.2 SW 9 17 5 9 - - 6.2
24/01:00am 1.2 -3.5 1.1 99 0.0 WNW 15 28 8 15 - - 6.2
24/12:30am 0.6 -3.0 0.6 100 0.0 NW 9 22 5 12 - - 6.2
24/12:00am 0.2 -2.9 0.2 100 0.0 N 6 7 3 4 - - 6.2
 
Date/Time
EST
Temp
°C
App
Temp
°C
Dew
Point
Rel
Hum
%
Delta-T
°C
Wind Press
QNH
hPa
Press
MSL
hPa
Rain
since 9 am
mm
Dir
 
Spd
km/h
Gust
km/h
Spd
kts
Gust
kts
23/11:30pm 0.8 -2.8 0.8 100 0.0 W 9 20 5 11 - - 6.2
23/11:00pm 1.0 -2.6 0.9 99 0.0 NW 9 19 5 10 - - 6.2
23/10:30pm 1.2 -2.3 1.2 100 0.0 WNW 9 22 5 12 - - 6.2
23/10:00pm 0.5 -3.5 0.5 100 0.0 NNW 11 20 6 11 - - 6.2
23/09:30pm 1.0 -2.5 1.0 100 0.0 NW 9 17 5 9 - - 6.2
23/09:00pm 1.3 -1.6 1.3 100 0.0 N 6 9 3 5 - - 6.2
23/08:30pm 1.9 -0.9 1.9 100 0.0 WSW 6 7 3 4 - - 6.0

Other Formats:

Comma delimited format used in spreadsheet applications
http://www.bom.gov.au/fwo/IDT60801/IDT60801.95962.axf

JavaScript Object Notation format (JSON) in row-major order
http://www.bom.gov.au/fwo/IDT60801/IDT60801.95962.json